Time;durP1;ratioP1;P1;durP2;ratioP2;P2;SDS_P1;SDS_P2;PMS_P1;PMS_P2;Temp;Humidity;BMP_temperature;BMP_pressure;BME280_temperature;BME280_humidity;BME280_pressure;Samples;Min_cycle;Max_cycle;Signal;HPM_P1;HPM_P2
2021/03/17 00:00:10;;;;;;;5.70;1.90;;;4.00;95.70;;;;;;5070169;28;20051;-63
2021/03/17 00:02:55;;;;;;;5.95;2.35;;;4.00;95.70;;;;;;5072056;28;20143;-62
2021/03/17 00:05:42;;;;;;;4.47;1.70;;;4.00;95.80;;;;;;5071197;28;20533;-62
2021/03/17 00:08:27;;;;;;;4.85;1.98;;;4.00;95.70;;;;;;5071312;28;20047;-62
2021/03/17 00:11:12;;;;;;;4.30;1.60;;;3.90;95.80;;;;;;5072647;28;20516;-63
2021/03/17 00:14:16;;;;;;;6.25;2.20;;;3.90;95.90;;;;;;5069166;28;20063;-62
2021/03/17 00:17:01;;;;;;;4.78;2.45;;;3.90;96.20;;;;;;5062584;28;20059;-62
2021/03/17 00:19:46;;;;;;;3.83;1.77;;;3.90;96.20;;;;;;5069033;28;20047;-62
2021/03/17 00:22:31;;;;;;;4.22;2.10;;;3.90;96.40;;;;;;5070613;28;20247;-62
2021/03/17 00:25:19;;;;;;;3.85;1.33;;;3.80;96.40;;;;;;5060507;28;20047;-62
2021/03/17 00:28:05;;;;;;;3.85;1.58;;;3.80;96.60;;;;;;5073050;28;20503;-63
2021/03/17 00:30:50;;;;;;;5.97;2.78;;;3.80;96.80;;;;;;5061053;28;20055;-63
2021/03/17 00:33:35;;;;;;;5.53;2.22;;;3.80;97.10;;;;;;5056833;28;20097;-62
2021/03/17 00:36:20;;;;;;;5.13;1.65;;;3.90;96.90;;;;;;5068462;28;20501;-62
2021/03/17 00:39:06;;;;;;;4.88;2.15;;;3.90;96.80;;;;;;5068203;28;20052;-62
2021/03/17 00:41:51;;;;;;;5.65;2.28;;;3.90;96.70;;;;;;5070430;28;20101;-63
2021/03/17 00:44:40;;;;;;;4.45;1.73;;;3.90;96.80;;;;;;5071099;28;20514;-63
2021/03/17 00:47:27;;;;;;;5.60;2.10;;;3.90;96.90;;;;;;5072070;28;20177;-63
2021/03/17 00:49:54;;;;;;;6.20;2.38;;;3.90;96.80;;;;;;5069039;28;20037;-63
2021/03/17 00:52:23;;;;;;;6.55;2.33;;;3.90;96.90;;;;;;5055345;28;20037;-62
2021/03/17 00:55:09;;;;;;;4.82;1.75;;;3.90;96.90;;;;;;5050458;28;20067;-62
2021/03/17 00:57:56;;;;;;;5.53;2.05;;;3.90;96.80;;;;;;5039109;28;20080;-62
2021/03/17 01:00:23;;;;;;;3.28;1.38;;;3.90;96.70;;;;;;5065410;28;20104;-63
2021/03/17 01:02:50;;;;;;;6.63;2.30;;;3.90;97.00;;;;;;5072332;28;20032;-62
2021/03/17 01:05:18;;;;;;;5.10;1.95;;;3.90;97.10;;;;;;5070625;28;20436;-62
2021/03/17 01:07:44;;;;;;;4.60;1.88;;;3.80;97.00;;;;;;5070512;28;20047;-62
2021/03/17 01:10:27;;;;;;;4.60;1.83;;;3.80;97.20;;;;;;5067961;28;20052;-62
2021/03/17 01:12:53;;;;;;;7.43;2.77;;;3.80;97.10;;;;;;5052432;28;20050;-62
2021/03/17 01:15:21;;;;;;;3.80;1.77;;;3.80;97.10;;;;;;5049931;28;20048;-63
2021/03/17 01:17:48;;;;;;;5.45;1.65;;;3.80;97.10;;;;;;5071541;28;20037;-62
2021/03/17 01:20:17;;;;;;;3.92;1.88;;;3.70;97.00;;;;;;5053240;28;20472;-62
2021/03/17 01:22:43;;;;;;;4.63;2.05;;;3.70;97.20;;;;;;5045047;28;20036;-62
2021/03/17 01:25:13;;;;;;;4.75;2.40;;;3.70;97.40;;;;;;5049449;28;20403;-62
2021/03/17 01:27:40;;;;;;;5.97;2.08;;;3.70;97.30;;;;;;5053782;28;20091;-63
2021/03/17 01:30:10;;;;;;;7.18;1.98;;;3.70;97.30;;;;;;5070782;28;20063;-62
2021/03/17 01:32:36;;;;;;;4.38;1.77;;;3.70;97.40;;;;;;5069677;28;20041;-62
2021/03/17 01:35:10;;;;;;;4.65;2.00;;;3.70;97.30;;;;;;5045593;28;20082;-62
2021/03/17 01:37:36;;;;;;;5.78;2.00;;;3.60;97.20;;;;;;5065052;28;20048;-62
2021/03/17 01:40:04;;;;;;;5.78;1.85;;;3.60;97.40;;;;;;5070429;28;20045;-62
2021/03/17 01:42:31;;;;;;;4.32;2.03;;;3.60;97.50;;;;;;5054066;28;20055;-62
2021/03/17 01:45:13;;;;;;;4.13;1.95;;;3.50;97.50;;;;;;5061886;28;20033;-62
2021/03/17 01:47:42;;;;;;;3.85;1.55;;;3.50;97.80;;;;;;5071502;28;20685;-62
2021/03/17 01:50:18;;;;;;;4.25;1.80;;;3.40;97.80;;;;;;5067118;28;20041;-62
2021/03/17 01:52:45;;;;;;;4.88;2.25;;;3.40;98.00;;;;;;5065158;28;20044;-62
2021/03/17 01:55:15;;;;;;;8.30;2.63;;;3.40;97.90;;;;;;5052497;28;20377;-63
2021/03/17 01:57:42;;;;;;;7.88;2.50;;;3.40;97.90;;;;;;5067390;28;20040;-62
2021/03/17 02:00:11;;;;;;;6.32;1.88;;;3.30;98.10;;;;;;5068891;28;20052;-62
2021/03/17 02:02:40;;;;;;;5.80;2.22;;;3.20;98.30;;;;;;5069381;28;20491;-62
2021/03/17 02:05:14;;;;;;;6.60;2.38;;;3.20;98.70;;;;;;5065156;28;20131;-62
2021/03/17 02:07:41;;;;;;;5.53;2.20;;;3.20;98.70;;;;;;5071827;28;20044;-62
2021/03/17 02:10:12;;;;;;;7.72;2.90;;;3.10;98.90;;;;;;5047207;28;20521;-62
2021/03/17 02:12:53;;;;;;;5.13;1.98;;;3.00;99.30;;;;;;5069829;28;20055;-62
2021/03/17 02:15:47;;;;;;;5.88;2.42;;;3.00;99.50;;;;;;5066215;28;20051;-62
2021/03/17 02:18:42;;;;;;;7.95;2.88;;;3.00;99.70;;;;;;5043908;28;20051;-63
2021/03/17 02:21:44;;;;;;;6.03;2.47;;;2.90;99.90;;;;;;5052288;28;20057;-62
2021/03/17 02:24:24;;;;;;;7.07;2.30;;;3.00;99.90;;;;;;5069147;28;20158;-62
2021/03/17 02:27:00;;;;;;;6.35;2.47;;;3.00;99.90;;;;;;5043991;28;20083;-62
2021/03/17 02:30:04;;;;;;;7.10;2.70;;;3.00;99.90;;;;;;5050842;28;20051;-62
2021/03/17 02:32:37;;;;;;;8.82;3.20;;;2.90;99.90;;;;;;5065541;28;20047;-62
2021/03/17 02:35:05;;;;;;;;;;;3.00;99.90;;;;;;5048455;28;20040;-63
2021/03/17 02:37:33;;;;;;;5.43;1.98;;;3.00;99.90;;;;;;5069078;28;19952;-62
2021/03/17 02:40:09;;;;;;;6.72;3.20;;;3.00;99.90;;;;;;5069985;28;20048;-62
2021/03/17 02:42:45;;;;;;;7.88;3.08;;;3.00;99.90;;;;;;5061307;28;20407;-62
2021/03/17 02:45:16;;;;;;;6.45;2.50;;;3.00;99.90;;;;;;5022506;28;20500;-62
2021/03/17 02:48:12;;;;;;;8.02;3.08;;;3.00;99.90;;;;;;5025074;28;20053;-62
2021/03/17 02:50:43;;;;;;;7.68;2.53;;;3.10;99.90;;;;;;5042272;28;20551;-62
2021/03/17 02:53:13;;;;;;;7.03;2.67;;;3.10;99.90;;;;;;5035942;28;20530;-62
2021/03/17 02:55:48;;;;;;;6.93;2.92;;;3.10;99.90;;;;;;5042851;28;20037;-62
2021/03/17 02:58:16;;;;;;;5.25;2.50;;;3.10;99.90;;;;;;5050817;28;20461;-62
2021/03/17 03:00:43;;;;;;;6.70;2.47;;;3.10;99.90;;;;;;5031131;28;20041;-62
2021/03/17 03:03:12;;;;;;;6.18;2.53;;;3.00;99.90;;;;;;5050266;28;20037;-62
2021/03/17 03:05:40;;;;;;;7.55;2.92;;;3.00;99.90;;;;;;5048242;28;20114;-62
2021/03/17 03:08:09;;;;;;;5.93;2.45;;;3.00;99.90;;;;;;5047502;28;20057;-62
2021/03/17 03:10:38;;;;;;;7.00;2.47;;;2.90;99.90;;;;;;5048725;28;20056;-62
2021/03/17 03:13:05;;;;;;;6.97;2.50;;;3.00;99.90;;;;;;5049206;28;20052;-62
2021/03/17 03:15:33;;;;;;;8.60;3.00;;;2.90;99.90;;;;;;5043632;28;20045;-62
2021/03/17 03:18:03;;;;;;;7.03;2.70;;;2.90;99.90;;;;;;5027204;28;20053;-62
2021/03/17 03:20:32;;;;;;;6.65;2.60;;;2.90;99.90;;;;;;5049189;28;20037;-63
2021/03/17 03:23:00;;;;;;;6.90;2.85;;;2.90;99.90;;;;;;5032379;28;20400;-62
2021/03/17 03:25:27;;;;;;;7.35;3.00;;;2.90;99.90;;;;;;5049110;28;20041;-62
2021/03/17 03:27:55;;;;;;;9.30;2.78;;;2.90;99.90;;;;;;5049642;28;20098;-62
2021/03/17 03:30:27;;;;;;;6.32;2.63;;;2.80;99.90;;;;;;5050091;28;20110;-62
2021/03/17 03:32:54;;;;;;;8.73;2.63;;;2.80;99.90;;;;;;5027951;28;20484;-63
2021/03/17 03:35:23;;;;;;;10.07;3.35;;;2.80;99.90;;;;;;5027042;28;20051;-62
2021/03/17 03:37:50;;;;;;;6.95;2.75;;;2.80;99.90;;;;;;5032432;28;20061;-62
2021/03/17 03:40:19;;;;;;;9.43;3.13;;;2.80;99.90;;;;;;5051688;28;20036;-62
2021/03/17 03:42:48;;;;;;;7.63;2.60;;;2.70;99.90;;;;;;5057490;28;20053;-62
2021/03/17 03:45:17;;;;;;;7.18;2.90;;;2.70;99.90;;;;;;5048640;28;20411;-62
2021/03/17 03:47:46;;;;;;;8.30;2.45;;;2.70;99.90;;;;;;5051055;28;20124;-62
2021/03/17 03:50:17;;;;;;;7.65;3.08;;;2.70;99.90;;;;;;5052621;28;20087;-63
2021/03/17 03:52:55;;;;;;;10.43;3.42;;;2.80;99.90;;;;;;5052356;28;20061;-63
2021/03/17 03:55:43;;;;;;;6.45;2.42;;;2.80;99.90;;;;;;5051071;28;20468;-62
2021/03/17 03:58:13;;;;;;;6.60;3.22;;;2.80;99.90;;;;;;5052279;28;20045;-62
2021/03/17 04:00:42;;;;;;;7.53;2.88;;;2.70;99.90;;;;;;5034897;28;20029;-62
2021/03/17 04:03:12;;;;;;;8.00;3.28;;;2.60;99.90;;;;;;5018701;28;20041;-62
2021/03/17 04:05:40;;;;;;;8.57;3.03;;;2.60;99.90;;;;;;5038226;28;20078;-62
2021/03/17 04:08:15;;;;;;;7.68;2.72;;;2.50;99.90;;;;;;5058915;28;20052;-62
2021/03/17 04:10:43;;;;;;;11.40;3.28;;;2.50;99.90;;;;;;5052566;28;20037;-63
2021/03/17 04:13:11;;;;;;;8.85;3.22;;;2.50;99.90;;;;;;5050079;28;20048;-62
2021/03/17 04:15:38;;;;;;;7.47;2.85;;;2.50;99.90;;;;;;5043356;28;20049;-62
2021/03/17 04:18:11;;;;;;;10.45;3.13;;;2.50;99.90;;;;;;5050670;28;20050;-62
2021/03/17 04:20:42;;;;;;;;;;;2.50;99.90;;;;;;5053096;28;20044;-62
2021/03/17 04:23:12;;;;;;;7.72;3.22;;;2.50;99.90;;;;;;5048784;28;20398;-62
2021/03/17 04:25:48;;;;;;;8.25;2.35;;;2.50;99.90;;;;;;5048276;28;20045;-62
2021/03/17 04:28:19;;;;;;;7.78;2.92;;;2.60;99.90;;;;;;5047697;28;20048;-62
2021/03/17 04:30:46;;;;;;;10.02;3.38;;;2.60;99.90;;;;;;5050961;28;20060;-62
2021/03/17 04:33:15;;;;;;;8.52;2.80;;;2.60;99.90;;;;;;5050055;28;20095;-62
2021/03/17 04:35:43;;;;;;;9.93;3.13;;;2.60;99.90;;;;;;5033222;28;20044;-62
2021/03/17 04:38:12;;;;;;;8.77;2.88;;;2.60;99.90;;;;;;5040482;28;20073;-62
2021/03/17 04:40:39;;;;;;;11.85;3.60;;;2.60;99.90;;;;;;5060798;28;20407;-62
2021/03/17 04:43:09;;;;;;;9.63;2.65;;;2.60;99.90;;;;;;5049127;28;20056;-63
2021/03/17 04:45:36;;;;;;;9.55;3.50;;;2.60;99.90;;;;;;5028347;28;20049;-62
2021/03/17 04:48:03;;;;;;;10.68;3.85;;;2.60;99.90;;;;;;5041785;28;20032;-62
2021/03/17 04:50:30;;;;;;;9.30;3.55;;;2.50;99.90;;;;;;5058554;28;20033;-63
2021/03/17 04:52:57;;;;;;;9.63;3.92;;;2.50;99.90;;;;;;5041171;28;20120;-62
2021/03/17 04:55:25;;;;;;;12.02;3.50;;;2.50;99.90;;;;;;5035464;28;20506;-62
2021/03/17 04:57:52;;;;;;;10.95;3.42;;;2.40;99.90;;;;;;5021457;28;20115;-62
2021/03/17 05:00:22;;;;;;;10.63;3.63;;;2.40;99.90;;;;;;5033181;28;20041;-62
2021/03/17 05:02:58;;;;;;;12.32;4.38;;;2.40;99.90;;;;;;5030176;28;20101;-62
2021/03/17 05:05:30;;;;;;;10.38;4.00;;;2.50;99.90;;;;;;5034926;28;20041;-62
2021/03/17 05:07:57;;;;;;;8.93;3.40;;;2.50;99.90;;;;;;5031995;28;20041;-62
2021/03/17 05:10:26;;;;;;;11.60;4.40;;;2.50;99.90;;;;;;5053214;28;20044;-62
2021/03/17 05:12:53;;;;;;;11.73;3.65;;;2.50;99.90;;;;;;5034742;28;20052;-62
2021/03/17 05:15:22;;;;;;;12.05;4.15;;;2.40;99.90;;;;;;5054570;28;20051;-62
2021/03/17 05:17:49;;;;;;;13.20;4.90;;;2.40;99.90;;;;;;5054243;28;20076;-62
2021/03/17 05:20:19;;;;;;;12.52;4.68;;;2.40;99.90;;;;;;5030702;28;20044;-62
2021/03/17 05:22:49;;;;;;;10.32;4.93;;;2.40;99.90;;;;;;5048736;28;20106;-62
2021/03/17 05:25:18;;;;;;;12.05;4.75;;;2.50;99.90;;;;;;5050337;28;20052;-62
2021/03/17 05:27:54;;;;;;;10.02;4.70;;;2.50;99.90;;;;;;5055403;28;20633;-62
2021/03/17 05:30:24;;;;;;;13.35;5.20;;;2.40;99.90;;;;;;5048365;28;20484;-62
2021/03/17 05:32:52;;;;;;;15.35;5.05;;;2.40;99.90;;;;;;5058847;28;20037;-62
2021/03/17 05:35:19;;;;;;;12.10;5.07;;;2.40;99.90;;;;;;5056438;28;20065;-62
2021/03/17 05:37:46;;;;;;;10.40;3.92;;;2.40;99.90;;;;;;5031013;28;20554;-62
2021/03/17 05:40:15;;;;;;;10.50;4.07;;;2.40;99.90;;;;;;5030354;28;20041;-62
2021/03/17 05:42:43;;;;;;;13.13;4.32;;;2.40;99.90;;;;;;5061358;28;20136;-62
2021/03/17 05:45:16;;;;;;;15.65;5.10;;;2.50;99.90;;;;;;5049115;28;20431;-62
2021/03/17 05:48:04;;;;;;;12.77;4.07;;;2.50;99.90;;;;;;5063774;28;20048;-62
2021/03/17 05:50:32;;;;;;;15.25;4.53;;;2.60;99.90;;;;;;5054133;28;20477;-62
2021/03/17 05:52:59;;;;;;;11.48;4.80;;;2.60;99.90;;;;;;5043709;28;20479;-62
2021/03/17 05:55:26;;;;;;;11.38;4.60;;;2.70;99.90;;;;;;5074041;28;20052;-62
2021/03/17 05:57:54;;;;;;;9.73;3.92;;;2.70;99.90;;;;;;5074826;28;20041;-62
2021/03/17 06:00:22;;;;;;;12.38;5.20;;;2.80;99.90;;;;;;5078624;28;20048;-62
2021/03/17 06:02:50;;;;;;;15.23;4.65;;;2.90;99.90;;;;;;5072768;28;20045;-62
2021/03/17 06:05:20;;;;;;;13.52;4.20;;;2.90;99.90;;;;;;5069958;28;20433;-62
2021/03/17 06:08:06;;;;;;;10.73;5.18;;;3.00;99.90;;;;;;5046739;28;20049;-62
2021/03/17 06:10:34;;;;;;;12.90;4.72;;;3.10;99.90;;;;;;5062513;28;20102;-62
2021/03/17 06:13:15;;;;;;;20.35;6.60;;;3.30;99.90;;;;;;5048243;28;20079;-62
2021/03/17 06:15:49;;;;;;;13.05;4.85;;;3.40;99.90;;;;;;5067394;28;20063;-62
2021/03/17 06:18:35;;;;;;;15.25;5.45;;;3.60;99.90;;;;;;5071437;28;20032;-62
2021/03/17 06:21:05;;;;;;;9.25;3.55;;;3.70;99.90;;;;;;5044467;28;20043;-62
2021/03/17 06:23:33;;;;;;;12.65;4.18;;;4.00;99.90;;;;;;5077756;28;20472;-62
2021/03/17 06:26:00;;;;;;;8.25;3.45;;;4.20;99.90;;;;;;5073791;28;20102;-63
2021/03/17 06:28:29;;;;;;;14.77;3.97;;;4.40;99.90;;;;;;5067161;28;20048;-62
2021/03/17 06:30:57;;;;;;;10.50;4.75;;;4.50;99.90;;;;;;5054921;28;20045;-62
2021/03/17 06:33:24;;;;;;;14.15;4.53;;;4.60;99.90;;;;;;5052620;28;20090;-62
2021/03/17 06:36:12;;;;;;;8.35;3.42;;;4.80;99.30;;;;;;5073105;28;20050;-62
2021/03/17 06:38:40;;;;;;;9.13;3.33;;;4.90;97.50;;;;;;5046319;28;20129;-62
2021/03/17 06:41:07;;;;;;;9.57;3.42;;;4.90;97.00;;;;;;5067593;28;20036;-62
2021/03/17 06:43:48;;;;;;;10.50;4.10;;;4.90;96.60;;;;;;5051469;28;20496;-62
2021/03/17 06:46:17;;;;;;;10.13;3.58;;;4.90;96.50;;;;;;5026719;28;23343;-62
2021/03/17 06:49:03;;;;;;;10.63;3.47;;;5.00;96.20;;;;;;5051608;28;20072;-62
2021/03/17 06:51:31;;;;;;;10.57;4.15;;;5.00;95.60;;;;;;5046142;28;20044;-62
2021/03/17 06:54:03;;;;;;;12.25;4.18;;;5.10;95.60;;;;;;5040123;28;20045;-62
2021/03/17 06:56:33;;;;;;;13.27;4.18;;;5.10;95.40;;;;;;5053080;28;20067;-62
2021/03/17 06:59:04;;;;;;;9.77;4.07;;;5.10;95.10;;;;;;5062773;28;20079;-63
2021/03/17 07:01:57;;;;;;;11.07;3.83;;;5.10;94.80;;;;;;5045204;28;20040;-62
2021/03/17 07:04:30;;;;;;;10.77;4.22;;;5.10;94.50;;;;;;5032010;28;20045;-62
2021/03/17 07:07:01;;;;;;;9.10;3.88;;;5.10;94.30;;;;;;5038889;28;20060;-62
2021/03/17 07:09:29;;;;;;;10.13;3.63;;;5.00;94.00;;;;;;5051846;28;20521;-62
2021/03/17 07:12:09;;;;;;;9.63;2.92;;;5.10;94.80;;;;;;5049691;28;20041;-62
2021/03/17 07:14:41;;;;;;;11.10;4.00;;;5.20;94.70;;;;;;5044782;28;20044;-62
2021/03/17 07:17:26;;;;;;;12.60;4.03;;;5.30;94.60;;;;;;5051487;28;20045;-62
2021/03/17 07:19:53;;;;;;;10.95;4.22;;;5.40;94.60;;;;;;5051153;28;20768;-62
2021/03/17 07:22:20;;;;;;;10.00;4.22;;;5.50;93.60;;;;;;5033432;28;20052;-63
2021/03/17 07:25:01;;;;;;;10.25;3.72;;;5.70;93.80;;;;;;5032248;28;20045;-62
2021/03/17 07:27:29;;;;;;;9.43;3.88;;;5.80;92.50;;;;;;5051736;28;20045;-62
2021/03/17 07:30:03;;;;;;;8.25;3.60;;;6.00;91.50;;;;;;5032701;28;20048;-62
2021/03/17 07:33:03;;;;;;;9.70;3.92;;;6.10;91.40;;;;;;5047273;28;20049;-63
2021/03/17 07:35:31;;;;;;;11.60;3.70;;;6.30;91.10;;;;;;5030692;28;20052;-62
2021/03/17 07:38:12;;;;;;;8.43;3.35;;;6.40;91.10;;;;;;5042455;28;20040;-62
2021/03/17 07:40:45;;;;;;;9.77;3.63;;;6.50;90.00;;;;;;5034568;28;20055;-62
2021/03/17 07:43:13;;;;;;;11.50;3.53;;;6.70;90.10;;;;;;5067045;28;20040;-63
2021/03/17 07:45:41;;;;;;;10.68;4.05;;;6.80;89.10;;;;;;5054991;28;20102;-62
2021/03/17 07:48:12;;;;;;;11.10;3.97;;;6.90;88.30;;;;;;5053892;28;20125;-62
2021/03/17 07:50:41;;;;;;;9.20;3.88;;;7.00;88.00;;;;;;5070861;28;20102;-62
2021/03/17 07:53:16;;;;;;;7.88;3.42;;;7.20;86.00;;;;;;5073325;28;20451;-62
2021/03/17 07:55:45;;;;;;;9.30;3.75;;;7.20;85.70;;;;;;5059277;28;20052;-62
2021/03/17 07:58:14;;;;;;;7.43;2.95;;;7.30;85.20;;;;;;5071918;28;20115;-62
2021/03/17 08:00:43;;;;;;;10.57;3.70;;;7.40;83.60;;;;;;5068805;28;20037;-62
2021/03/17 08:03:14;;;;;;;9.18;3.30;;;7.50;83.20;;;;;;5066940;28;20602;-62
2021/03/17 08:05:42;;;;;;;6.10;2.85;;;7.50;82.90;;;;;;5050835;28;20105;-62
2021/03/17 08:08:10;;;;;;;8.63;3.22;;;7.60;81.50;;;;;;5071595;28;20044;-63
2021/03/17 08:10:43;;;;;;;8.35;3.45;;;7.50;81.50;;;;;;5072146;28;20037;-63
2021/03/17 08:13:12;;;;;;;13.75;4.05;;;7.50;81.30;;;;;;5070469;28;20040;-62
2021/03/17 08:15:39;;;;;;;10.20;3.25;;;7.40;81.80;;;;;;5050938;28;20040;-62
2021/03/17 08:18:32;;;;;;;7.05;2.70;;;7.30;81.90;;;;;;5053945;28;20483;-63
2021/03/17 08:21:00;;;;;;;10.50;3.35;;;7.20;81.40;;;;;;5066172;28;20045;-64
2021/03/17 08:23:41;;;;;;;10.35;3.92;;;7.10;81.80;;;;;;5069791;28;20182;-64
2021/03/17 08:26:31;;;;;;;9.82;3.50;;;7.20;82.20;;;;;;5069409;28;20044;-63
2021/03/17 08:28:58;;;;;;;11.45;3.00;;;7.30;81.40;;;;;;5026487;28;20048;-65
2021/03/17 08:31:36;;;;;;;9.90;3.22;;;7.40;80.70;;;;;;5070550;28;20101;-63
2021/03/17 08:34:19;;;;;;;11.32;3.42;;;7.40;80.10;;;;;;5059290;28;20098;-63
2021/03/17 08:36:50;;;;;;;11.23;3.67;;;7.40;80.20;;;;;;5065603;28;20044;-65
2021/03/17 08:39:29;;;;;;;12.18;4.72;;;7.40;80.00;;;;;;5053503;28;20051;-63
2021/03/17 08:41:56;;;;;;;12.05;4.10;;;7.40;80.50;;;;;;5071305;28;20349;-64
2021/03/17 08:44:28;;;;;;;7.97;3.25;;;7.40;80.50;;;;;;5070347;28;20037;-64
2021/03/17 08:46:56;;;;;;;18.30;3.77;;;7.40;80.50;;;;;;5053483;28;20426;-63
2021/03/17 08:49:31;;;;;;;9.13;3.47;;;7.40;79.70;;;;;;5071270;28;20127;-64
2021/03/17 08:51:58;;;;;;;9.60;3.70;;;7.50;79.70;;;;;;5070826;28;20054;-62
2021/03/17 08:54:31;;;;;;;13.32;4.03;;;7.50;80.00;;;;;;5051381;28;20433;-63
2021/03/17 08:57:07;;;;;;;8.95;3.72;;;7.50;78.60;;;;;;5053576;28;20048;-63
2021/03/17 08:59:55;;;;;;;10.25;3.88;;;7.60;78.80;;;;;;5072359;28;20048;-63
2021/03/17 09:02:25;;;;;;;10.45;3.92;;;7.60;78.10;;;;;;5047928;28;20507;-63
2021/03/17 09:04:56;;;;;;;8.82;4.05;;;7.60;78.00;;;;;;5066475;28;20094;-64
2021/03/17 09:07:31;;;;;;;9.88;4.13;;;7.70;79.60;;;;;;5068134;28;20135;-64
2021/03/17 09:10:15;;;;;;;13.15;4.40;;;7.80;78.70;;;;;;5053846;28;20048;-63
2021/03/17 09:12:41;;;;;;;10.20;4.03;;;8.10;79.60;;;;;;5069533;28;20046;-63
2021/03/17 09:15:12;;;;;;;11.40;4.30;;;8.30;79.40;;;;;;5069004;28;20495;-63
2021/03/17 09:17:48;;;;;;;8.98;3.55;;;8.50;75.00;;;;;;5067459;28;20036;-63
2021/03/17 09:20:28;;;;;;;10.68;4.03;;;8.70;75.00;;;;;;5053263;28;20048;-63
2021/03/17 09:23:02;;;;;;;12.32;4.65;;;8.80;73.70;;;;;;5051637;28;20040;-63
2021/03/17 09:25:29;;;;;;;12.88;4.28;;;8.80;74.40;;;;;;5067768;28;20048;-63
2021/03/17 09:28:02;;;;;;;7.95;3.88;;;8.80;72.90;;;;;;5050014;28;20052;-63
2021/03/17 09:30:59;;;;;;;11.38;3.60;;;8.80;72.80;;;;;;5049545;28;20053;-63
2021/03/17 09:33:36;;;;;;;9.63;4.20;;;9.10;73.50;;;;;;5044553;28;20102;-63
2021/03/17 09:36:09;;;;;;;15.35;4.10;;;9.30;71.80;;;;;;5069811;28;20060;-63
2021/03/17 09:38:43;;;;;;;;;;;9.40;71.80;;;;;;5072789;28;20049;-63
2021/03/17 09:41:16;;;;;;;10.40;3.60;;;9.70;70.60;;;;;;5052010;28;19928;-64
2021/03/17 09:44:04;;;;;;;10.95;3.80;;;9.80;69.80;;;;;;5068299;28;20040;-63
2021/03/17 09:46:37;;;;;;;8.15;3.80;;;9.80;67.30;;;;;;5066767;28;20048;-63
2021/03/17 09:49:15;;;;;;;8.27;3.47;;;9.60;67.10;;;;;;5068110;28;20041;-62
2021/03/17 09:51:47;;;;;;;9.13;3.72;;;9.60;68.20;;;;;;5045553;28;20045;-62
2021/03/17 09:54:16;;;;;;;11.05;3.47;;;9.70;67.60;;;;;;5069780;28;20047;-63
2021/03/17 09:56:48;;;;;;;10.35;3.70;;;9.70;66.90;;;;;;5051607;28;20052;-62
2021/03/17 09:59:29;;;;;;;11.93;4.25;;;9.80;66.30;;;;;;5054700;28;20044;-62
2021/03/17 10:02:16;;;;;;;11.40;4.10;;;10.00;67.40;;;;;;5047848;28;20246;-63
2021/03/17 10:04:47;;;;;;;10.40;4.05;;;10.20;65.60;;;;;;5068049;28;20071;-63
2021/03/17 10:07:27;;;;;;;12.95;3.78;;;10.30;66.20;;;;;;5068230;28;20472;-63
2021/03/17 10:09:57;;;;;;;9.25;4.25;;;10.40;64.90;;;;;;5068273;28;20064;-63
2021/03/17 10:12:29;;;;;;;9.38;3.95;;;10.60;65.60;;;;;;5055569;28;20072;-63
2021/03/17 10:15:05;;;;;;;9.20;4.30;;;10.80;63.30;;;;;;5045736;28;20061;-63
2021/03/17 10:17:32;;;;;;;10.15;3.97;;;10.90;62.80;;;;;;5064330;28;20068;-63
2021/03/17 10:20:13;;;;;;;10.07;4.25;;;11.00;62.90;;;;;;5044740;28;20067;-61
2021/03/17 10:22:39;;;;;;;10.82;3.63;;;10.90;61.70;;;;;;5024661;28;20044;-63
2021/03/17 10:25:22;;;;;;;9.90;3.55;;;11.00;61.30;;;;;;5066200;28;20036;-61
2021/03/17 10:28:05;;;;;;;12.10;4.50;;;11.00;61.00;;;;;;5061786;28;20090;-63
2021/03/17 10:30:33;;;;;;;10.57;4.32;;;11.10;60.70;;;;;;5065713;28;20442;-62
2021/03/17 10:33:02;;;;;;;12.05;4.22;;;11.10;62.40;;;;;;5042963;28;20072;-64
2021/03/17 10:35:33;;;;;;;7.90;4.07;;;11.30;61.30;;;;;;5063353;28;20044;-64
2021/03/17 10:38:00;;;;;;;12.25;4.10;;;11.40;62.20;;;;;;5060100;28;20053;-63
2021/03/17 10:40:28;;;;;;;9.73;4.50;;;11.60;61.40;;;;;;5043926;28;20044;-63
2021/03/17 10:42:58;;;;;;;10.23;4.63;;;11.40;59.90;;;;;;5044824;28;20790;-62
2021/03/17 10:45:32;;;;;;;9.23;3.90;;;11.60;60.30;;;;;;5064823;28;20144;-63
2021/03/17 10:48:10;;;;;;;13.18;4.43;;;11.80;59.90;;;;;;5059567;28;20044;-63
2021/03/17 10:50:39;;;;;;;9.10;3.58;;;11.90;58.50;;;;;;5065770;28;20123;-64
2021/03/17 10:53:26;;;;;;;8.88;3.58;;;12.10;57.60;;;;;;5045581;28;20048;-63
2021/03/17 10:55:54;;;;;;;11.18;4.35;;;12.10;57.20;;;;;;5065302;28;20568;-63
2021/03/17 10:58:23;;;;;;;11.43;4.85;;;12.00;57.60;;;;;;5044203;28;20048;-66
2021/03/17 11:00:52;;;;;;;12.43;4.70;;;11.80;58.10;;;;;;5057046;28;20047;-72
2021/03/17 11:03:39;;;;;;;10.15;4.03;;;12.10;60.00;;;;;;5049545;28;20045;-67
2021/03/17 11:06:22;;;;;;;10.57;4.00;;;12.50;56.90;;;;;;5048584;28;20090;-66
2021/03/17 11:09:05;;;;;;;9.80;4.25;;;12.70;56.50;;;;;;5067263;28;20759;-68
2021/03/17 11:11:47;;;;;;;10.57;4.03;;;12.80;54.20;;;;;;5041670;28;20052;-63
2021/03/17 11:14:40;;;;;;;11.63;4.00;;;12.80;54.80;;;;;;5021845;28;20385;-63
2021/03/17 11:17:08;;;;;;;7.93;3.55;;;12.70;53.40;;;;;;5065130;28;20063;-63
2021/03/17 11:19:36;;;;;;;10.57;4.25;;;12.50;54.30;;;;;;5064115;28;20127;-63
2021/03/17 11:22:02;;;;;;;10.13;4.50;;;12.30;54.30;;;;;;5045650;28;20030;-62
2021/03/17 11:24:29;;;;;;;9.18;3.97;;;11.80;54.00;;;;;;5043898;28;20114;-62
2021/03/17 11:26:56;;;;;;;9.60;3.97;;;11.70;55.70;;;;;;5037137;28;20049;-62
2021/03/17 11:29:27;;;;;;;10.45;4.25;;;11.60;55.10;;;;;;5058016;28;20052;-61
2021/03/17 11:32:06;;;;;;;9.50;4.30;;;11.40;56.40;;;;;;5045530;28;20051;-61
2021/03/17 11:34:33;;;;;;;11.13;4.22;;;11.60;55.80;;;;;;5052281;28;20098;-63
2021/03/17 11:37:00;;;;;;;10.15;3.80;;;11.80;55.40;;;;;;5063306;28;20467;-62
2021/03/17 11:39:27;;;;;;;7.70;3.75;;;12.00;55.40;;;;;;5045658;28;20051;-62
2021/03/17 11:41:53;;;;;;;9.20;3.90;;;12.10;54.60;;;;;;5055032;28;20067;-62
2021/03/17 11:44:21;;;;;;;9.18;3.90;;;12.20;55.30;;;;;;5008193;28;20125;-62
2021/03/17 11:46:49;;;;;;;12.30;4.68;;;12.40;55.60;;;;;;5041005;28;20126;-61
2021/03/17 11:49:17;;;;;;;7.57;3.63;;;12.40;54.20;;;;;;5046100;28;20095;-62
2021/03/17 11:51:44;;;;;;;8.88;3.05;;;12.20;53.40;;;;;;5048290;28;20041;-62
2021/03/17 11:54:12;;;;;;;6.85;3.50;;;12.20;52.60;;;;;;5030478;28;20456;-62
2021/03/17 11:56:39;;;;;;;7.80;3.28;;;12.10;53.10;;;;;;5027943;28;20055;-62
2021/03/17 11:59:06;;;;;;;7.65;2.65;;;12.20;52.10;;;;;;5029555;28;20072;-62
2021/03/17 12:01:33;;;;;;;8.73;3.00;;;12.30;52.00;;;;;;5048903;28;20065;-62
2021/03/17 12:04:00;;;;;;;8.40;3.25;;;12.20;52.70;;;;;;5039927;28;20483;-62
2021/03/17 12:06:28;;;;;;;6.93;3.17;;;12.10;52.50;;;;;;5041820;28;20929;-64
2021/03/17 12:08:54;;;;;;;6.68;3.53;;;12.10;52.60;;;;;;5045970;28;20055;-64
2021/03/17 12:11:22;;;;;;;9.40;2.88;;;12.10;53.30;;;;;;5045748;28;20063;-64
2021/03/17 12:13:51;;;;;;;7.53;3.22;;;12.10;53.70;;;;;;5028989;28;20040;-63
2021/03/17 12:16:19;;;;;;;7.57;3.20;;;11.90;54.00;;;;;;5029584;28;20499;-62
2021/03/17 12:18:47;;;;;;;8.90;3.28;;;11.80;53.60;;;;;;5029107;28;20526;-64
2021/03/17 12:21:15;;;;;;;9.52;3.75;;;11.60;55.80;;;;;;5047799;28;20117;-64
2021/03/17 12:23:41;;;;;;;7.00;3.13;;;11.60;57.50;;;;;;5026438;28;20041;-65
2021/03/17 12:26:08;;;;;;;8.93;3.45;;;11.30;58.10;;;;;;5043820;28;20052;-64
2021/03/17 12:28:35;;;;;;;8.02;3.33;;;11.30;58.00;;;;;;5048469;28;20404;-65
2021/03/17 12:31:02;;;;;;;10.15;3.35;;;11.20;57.90;;;;;;5030725;28;20590;-64
2021/03/17 12:33:29;;;;;;;8.02;3.22;;;11.20;57.10;;;;;;5027523;28;20053;-65
2021/03/17 12:35:56;;;;;;;7.25;2.75;;;11.20;55.30;;;;;;5038962;28;20103;-65
2021/03/17 12:38:22;;;;;;;8.27;2.50;;;11.10;56.50;;;;;;5023284;28;20056;-65
2021/03/17 12:40:49;;;;;;;6.95;2.72;;;11.10;57.00;;;;;;5029479;28;20056;-64
2021/03/17 12:43:16;;;;;;;6.82;2.40;;;10.90;58.60;;;;;;5025284;28;20137;-65
2021/03/17 12:45:44;;;;;;;6.05;2.03;;;10.80;58.50;;;;;;5046629;28;20063;-64
2021/03/17 12:48:12;;;;;;;9.00;3.10;;;10.70;59.80;;;;;;5048487;28;20053;-64
2021/03/17 12:50:40;;;;;;;5.82;2.38;;;10.50;62.10;;;;;;5047733;28;20049;-64
2021/03/17 12:53:07;;;;;;;6.47;2.47;;;10.10;65.50;;;;;;5026452;28;20247;-67
2021/03/17 12:55:34;;;;;;;5.50;2.20;;;9.80;67.80;;;;;;5030301;28;20072;-64
2021/03/17 12:58:01;;;;;;;6.97;3.03;;;9.70;68.80;;;;;;5046004;28;20044;-64
2021/03/17 13:00:29;;;;;;;8.18;2.75;;;9.70;69.40;;;;;;5047982;28;20052;-65
2021/03/17 13:02:57;;;;;;;7.35;2.42;;;9.70;69.30;;;;;;5032794;28;20131;-65
2021/03/17 13:05:24;;;;;;;6.00;2.65;;;9.80;72.80;;;;;;5033753;28;20041;-63
2021/03/17 13:07:51;;;;;;;6.82;2.60;;;10.00;70.40;;;;;;5041620;28;20758;-64
2021/03/17 13:10:22;;;;;;;6.97;2.10;;;10.20;68.20;;;;;;5047882;28;20480;-65
2021/03/17 13:12:49;;;;;;;6.47;2.45;;;10.80;67.20;;;;;;5045075;28;20087;-64
2021/03/17 13:15:18;;;;;;;7.80;2.60;;;11.40;63.50;;;;;;5047416;28;20040;-64
2021/03/17 13:17:45;;;;;;;7.43;3.28;;;12.20;62.40;;;;;;5040366;28;20381;-62
2021/03/17 13:20:15;;;;;;;9.00;3.40;;;13.30;60.90;;;;;;5021408;28;20815;-62